sensor_id;sensor_type;location;lat;lon;timestamp;temperature;humidity
26703;DHT22;14316;51.074;3.704;2022-10-31T00:00:46;13.30;99.90
26703;DHT22;14316;51.074;3.704;2022-10-31T00:03:11;13.20;99.90
26703;DHT22;14316;51.074;3.704;2022-10-31T00:05:44;13.20;99.90
26703;DHT22;14316;51.074;3.704;2022-10-31T00:08:10;13.20;99.90
26703;DHT22;14316;51.074;3.704;2022-10-31T00:10:40;13.20;99.90
26703;DHT22;14316;51.074;3.704;2022-10-31T00:13:07;13.20;99.90
26703;DHT22;14316;51.074;3.704;2022-10-31T00:15:37;13.40;99.90
26703;DHT22;14316;51.074;3.704;2022-10-31T00:18:04;13.20;99.90
26703;DHT22;14316;51.074;3.704;2022-10-31T00:20:30;13.20;99.90
26703;DHT22;14316;51.074;3.704;2022-10-31T00:23:00;13.10;99.90
26703;DHT22;14316;51.074;3.704;2022-10-31T00:25:27;13.10;99.90
26703;DHT22;14316;51.074;3.704;2022-10-31T00:27:53;13.10;99.90
26703;DHT22;14316;51.074;3.704;2022-10-31T00:30:19;13.10;99.90
26703;DHT22;14316;51.074;3.704;2022-10-31T00:32:44;13.10;99.90
26703;DHT22;14316;51.074;3.704;2022-10-31T00:35:11;13.10;99.90
26703;DHT22;14316;51.074;3.704;2022-10-31T00:37:36;13.00;99.90
26703;DHT22;14316;51.074;3.704;2022-10-31T00:40:02;12.90;99.90
26703;DHT22;14316;51.074;3.704;2022-10-31T00:42:28;13.00;99.90
26703;DHT22;14316;51.074;3.704;2022-10-31T00:44:53;13.00;99.90
26703;DHT22;14316;51.074;3.704;2022-10-31T00:47:19;12.90;99.90
26703;DHT22;14316;51.074;3.704;2022-10-31T00:49:44;13.00;99.90
26703;DHT22;14316;51.074;3.704;2022-10-31T00:52:10;13.00;99.90
26703;DHT22;14316;51.074;3.704;2022-10-31T00:54:36;13.00;99.90
26703;DHT22;14316;51.074;3.704;2022-10-31T00:57:01;12.90;99.90
26703;DHT22;14316;51.074;3.704;2022-10-31T00:59:28;12.90;99.90
26703;DHT22;14316;51.074;3.704;2022-10-31T01:01:53;12.90;99.90
26703;DHT22;14316;51.074;3.704;2022-10-31T01:04:19;12.80;99.90
26703;DHT22;14316;51.074;3.704;2022-10-31T01:06:45;12.80;99.90
26703;DHT22;14316;51.074;3.704;2022-10-31T01:09:10;13.00;99.90
26703;DHT22;14316;51.074;3.704;2022-10-31T01:11:36;12.80;99.90
26703;DHT22;14316;51.074;3.704;2022-10-31T01:14:02;12.80;99.90
26703;DHT22;14316;51.074;3.704;2022-10-31T01:16:28;12.90;99.90
26703;DHT22;14316;51.074;3.704;2022-10-31T01:18:55;12.90;99.90
26703;DHT22;14316;51.074;3.704;2022-10-31T01:21:25;12.90;99.90
26703;DHT22;14316;51.074;3.704;2022-10-31T01:23:56;12.90;99.90
26703;DHT22;14316;51.074;3.704;2022-10-31T01:26:24;12.80;99.90
26703;DHT22;14316;51.074;3.704;2022-10-31T01:29:19;12.90;99.90
26703;DHT22;14316;51.074;3.704;2022-10-31T01:31:45;12.90;99.90
26703;DHT22;14316;51.074;3.704;2022-10-31T01:34:16;13.00;99.90
26703;DHT22;14316;51.074;3.704;2022-10-31T01:36:43;12.90;99.90
26703;DHT22;14316;51.074;3.704;2022-10-31T01:39:15;13.00;99.90
26703;DHT22;14316;51.074;3.704;2022-10-31T01:41:44;13.20;99.90
26703;DHT22;14316;51.074;3.704;2022-10-31T01:46:42;12.70;99.90
26703;DHT22;14316;51.074;3.704;2022-10-31T01:49:13;12.70;99.90
26703;DHT22;14316;51.074;3.704;2022-10-31T01:51:47;12.60;99.90
26703;DHT22;14316;51.074;3.704;2022-10-31T01:54:16;12.60;99.90
26703;DHT22;14316;51.074;3.704;2022-10-31T01:56:45;12.70;99.90
26703;DHT22;14316;51.074;3.704;2022-10-31T01:59:17;12.70;99.90
26703;DHT22;14316;51.074;3.704;2022-10-31T02:01:45;13.00;99.90
26703;DHT22;14316;51.074;3.704;2022-10-31T02:04:11;13.10;99.90
26703;DHT22;14316;51.074;3.704;2022-10-31T02:06:48;13.20;99.90
26703;DHT22;14316;51.074;3.704;2022-10-31T02:09:15;13.30;99.90
26703;DHT22;14316;51.074;3.704;2022-10-31T02:11:43;13.40;99.90
26703;DHT22;14316;51.074;3.704;2022-10-31T02:14:10;13.20;99.90
26703;DHT22;14316;51.074;3.704;2022-10-31T02:16:35;13.30;99.90
26703;DHT22;14316;51.074;3.704;2022-10-31T02:19:02;13.30;99.90
26703;DHT22;14316;51.074;3.704;2022-10-31T02:21:45;13.20;99.90
26703;DHT22;14316;51.074;3.704;2022-10-31T02:30:37;13.00;99.90
26703;DHT22;14316;51.074;3.704;2022-10-31T02:33:21;13.00;99.90
26703;DHT22;14316;51.074;3.704;2022-10-31T02:36:00;13.00;99.90
26703;DHT22;14316;51.074;3.704;2022-10-31T02:46:38;13.10;99.90
26703;DHT22;14316;51.074;3.704;2022-10-31T02:49:07;13.10;99.90
26703;DHT22;14316;51.074;3.704;2022-10-31T02:51:35;13.20;99.90
26703;DHT22;14316;51.074;3.704;2022-10-31T02:54:01;13.20;99.90
26703;DHT22;14316;51.074;3.704;2022-10-31T02:56:27;13.20;99.90
26703;DHT22;14316;51.074;3.704;2022-10-31T02:58:59;13.20;99.90
26703;DHT22;14316;51.074;3.704;2022-10-31T03:12:01;12.90;99.90
26703;DHT22;14316;51.074;3.704;2022-10-31T03:14:43;12.90;99.90
26703;DHT22;14316;51.074;3.704;2022-10-31T03:17:18;13.00;99.90
26703;DHT22;14316;51.074;3.704;2022-10-31T03:19:49;13.00;99.90
26703;DHT22;14316;51.074;3.704;2022-10-31T03:22:20;13.10;99.90
26703;DHT22;14316;51.074;3.704;2022-10-31T03:24:48;13.10;99.90
26703;DHT22;14316;51.074;3.704;2022-10-31T03:27:20;13.20;99.90
26703;DHT22;14316;51.074;3.704;2022-10-31T03:29:49;13.30;99.90
26703;DHT22;14316;51.074;3.704;2022-10-31T03:34:58;13.30;99.90
26703;DHT22;14316;51.074;3.704;2022-10-31T03:37:27;13.30;99.90
26703;DHT22;14316;51.074;3.704;2022-10-31T03:39:56;13.40;99.90
26703;DHT22;14316;51.074;3.704;2022-10-31T03:42:25;13.10;99.90
26703;DHT22;14316;51.074;3.704;2022-10-31T03:47:30;13.10;99.90
26703;DHT22;14316;51.074;3.704;2022-10-31T03:49:57;13.10;99.90
26703;DHT22;14316;51.074;3.704;2022-10-31T03:52:50;13.10;99.90
26703;DHT22;14316;51.074;3.704;2022-10-31T03:55:36;13.10;99.90
26703;DHT22;14316;51.074;3.704;2022-10-31T03:58:08;13.10;99.90
26703;DHT22;14316;51.074;3.704;2022-10-31T04:00:36;13.10;99.90
26703;DHT22;14316;51.074;3.704;2022-10-31T04:03:10;13.00;99.90
26703;DHT22;14316;51.074;3.704;2022-10-31T04:05:37;13.00;99.90
26703;DHT22;14316;51.074;3.704;2022-10-31T04:08:08;13.10;99.90
26703;DHT22;14316;51.074;3.704;2022-10-31T04:10:37;13.10;99.90
26703;DHT22;14316;51.074;3.704;2022-10-31T04:13:13;13.10;99.90
26703;DHT22;14316;51.074;3.704;2022-10-31T04:15:41;13.20;99.90
26703;DHT22;14316;51.074;3.704;2022-10-31T04:18:07;13.20;99.90
26703;DHT22;14316;51.074;3.704;2022-10-31T04:20:39;13.20;99.90
26703;DHT22;14316;51.074;3.704;2022-10-31T04:23:08;13.40;99.90
26703;DHT22;14316;51.074;3.704;2022-10-31T04:25:39;13.40;99.90
26703;DHT22;14316;51.074;3.704;2022-10-31T04:28:04;13.40;99.90
26703;DHT22;14316;51.074;3.704;2022-10-31T04:30:30;13.40;99.90
26703;DHT22;14316;51.074;3.704;2022-10-31T04:32:56;13.50;99.90
26703;DHT22;14316;51.074;3.704;2022-10-31T04:35:22;13.40;99.90
26703;DHT22;14316;51.074;3.704;2022-10-31T04:37:47;13.40;99.90
26703;DHT22;14316;51.074;3.704;2022-10-31T04:40:13;13.50;99.90
26703;DHT22;14316;51.074;3.704;2022-10-31T04:42:38;13.40;99.90
26703;DHT22;14316;51.074;3.704;2022-10-31T04:45:05;13.60;99.90
26703;DHT22;14316;51.074;3.704;2022-10-31T04:47:32;13.30;99.90
26703;DHT22;14316;51.074;3.704;2022-10-31T04:49:58;13.20;99.90
26703;DHT22;14316;51.074;3.704;2022-10-31T04:52:24;13.30;99.90
26703;DHT22;14316;51.074;3.704;2022-10-31T04:54:50;13.30;99.90
26703;DHT22;14316;51.074;3.704;2022-10-31T04:57:16;13.20;99.90
26703;DHT22;14316;51.074;3.704;2022-10-31T04:59:41;13.10;99.90
26703;DHT22;14316;51.074;3.704;2022-10-31T05:02:07;13.10;99.90
26703;DHT22;14316;51.074;3.704;2022-10-31T05:04:32;13.10;99.90
26703;DHT22;14316;51.074;3.704;2022-10-31T05:06:58;13.20;99.90
26703;DHT22;14316;51.074;3.704;2022-10-31T05:09:24;13.10;99.90
26703;DHT22;14316;51.074;3.704;2022-10-31T05:11:50;13.10;99.90
26703;DHT22;14316;51.074;3.704;2022-10-31T05:14:15;12.90;99.90
26703;DHT22;14316;51.074;3.704;2022-10-31T05:16:41;13.10;99.90
26703;DHT22;14316;51.074;3.704;2022-10-31T05:19:07;12.70;99.90
26703;DHT22;14316;51.074;3.704;2022-10-31T05:21:32;12.70;99.90
26703;DHT22;14316;51.074;3.704;2022-10-31T05:23:58;12.90;99.90
26703;DHT22;14316;51.074;3.704;2022-10-31T05:26:24;12.90;99.90
26703;DHT22;14316;51.074;3.704;2022-10-31T05:28:49;13.00;99.90
26703;DHT22;14316;51.074;3.704;2022-10-31T05:31:15;12.90;99.90
26703;DHT22;14316;51.074;3.704;2022-10-31T05:33:41;12.90;99.90
26703;DHT22;14316;51.074;3.704;2022-10-31T05:36:07;12.90;99.90
26703;DHT22;14316;51.074;3.704;2022-10-31T05:38:33;12.90;99.90
26703;DHT22;14316;51.074;3.704;2022-10-31T05:40:58;13.10;99.90
26703;DHT22;14316;51.074;3.704;2022-10-31T05:43:26;12.80;99.90
26703;DHT22;14316;51.074;3.704;2022-10-31T05:45:53;12.80;99.90
26703;DHT22;14316;51.074;3.704;2022-10-31T05:48:19;12.80;99.90
26703;DHT22;14316;51.074;3.704;2022-10-31T05:50:46;12.80;99.90
26703;DHT22;14316;51.074;3.704;2022-10-31T05:53:12;12.90;99.90
26703;DHT22;14316;51.074;3.704;2022-10-31T05:55:38;12.90;99.90
26703;DHT22;14316;51.074;3.704;2022-10-31T05:58:05;12.90;99.90
26703;DHT22;14316;51.074;3.704;2022-10-31T06:00:30;12.80;99.90
26703;DHT22;14316;51.074;3.704;2022-10-31T06:02:58;13.00;99.90
26703;DHT22;14316;51.074;3.704;2022-10-31T06:05:25;12.90;99.90
26703;DHT22;14316;51.074;3.704;2022-10-31T06:07:50;12.90;99.90
26703;DHT22;14316;51.074;3.704;2022-10-31T06:10:16;13.00;99.90
26703;DHT22;14316;51.074;3.704;2022-10-31T06:12:44;13.10;99.90
26703;DHT22;14316;51.074;3.704;2022-10-31T06:15:10;13.10;99.90
26703;DHT22;14316;51.074;3.704;2022-10-31T06:17:36;13.20;99.90
26703;DHT22;14316;51.074;3.704;2022-10-31T06:20:02;13.30;99.90
26703;DHT22;14316;51.074;3.704;2022-10-31T06:22:28;13.30;99.90
26703;DHT22;14316;51.074;3.704;2022-10-31T06:24:54;13.40;99.90
26703;DHT22;14316;51.074;3.704;2022-10-31T06:27:20;13.50;99.90
26703;DHT22;14316;51.074;3.704;2022-10-31T06:29:45;13.50;99.90
26703;DHT22;14316;51.074;3.704;2022-10-31T06:32:12;13.60;99.90
26703;DHT22;14316;51.074;3.704;2022-10-31T06:34:38;13.60;99.90
26703;DHT22;14316;51.074;3.704;2022-10-31T06:37:06;13.60;99.90
26703;DHT22;14316;51.074;3.704;2022-10-31T06:39:32;13.70;99.90
26703;DHT22;14316;51.074;3.704;2022-10-31T06:41:58;13.70;99.90
26703;DHT22;14316;51.074;3.704;2022-10-31T06:44:23;13.80;99.90
26703;DHT22;14316;51.074;3.704;2022-10-31T06:46:49;13.80;99.90
26703;DHT22;14316;51.074;3.704;2022-10-31T06:49:15;13.90;99.90
26703;DHT22;14316;51.074;3.704;2022-10-31T06:51:40;13.90;99.90
26703;DHT22;14316;51.074;3.704;2022-10-31T06:54:06;14.00;99.90
26703;DHT22;14316;51.074;3.704;2022-10-31T06:56:32;14.20;99.90
26703;DHT22;14316;51.074;3.704;2022-10-31T06:58:57;14.10;99.90
26703;DHT22;14316;51.074;3.704;2022-10-31T07:01:23;14.20;99.90
26703;DHT22;14316;51.074;3.704;2022-10-31T07:03:48;14.10;99.90
26703;DHT22;14316;51.074;3.704;2022-10-31T07:06:14;14.00;99.90
26703;DHT22;14316;51.074;3.704;2022-10-31T07:08:40;14.00;99.90
26703;DHT22;14316;51.074;3.704;2022-10-31T07:11:05;14.10;99.90
26703;DHT22;14316;51.074;3.704;2022-10-31T07:13:31;14.20;99.90
26703;DHT22;14316;51.074;3.704;2022-10-31T07:16:02;14.20;99.90
26703;DHT22;14316;51.074;3.704;2022-10-31T07:18:28;14.40;99.90
26703;DHT22;14316;51.074;3.704;2022-10-31T07:20:54;14.30;99.90
26703;DHT22;14316;51.074;3.704;2022-10-31T07:23:21;14.20;99.90
26703;DHT22;14316;51.074;3.704;2022-10-31T07:25:47;14.20;99.90
26703;DHT22;14316;51.074;3.704;2022-10-31T07:28:12;14.20;99.90
26703;DHT22;14316;51.074;3.704;2022-10-31T07:30:38;14.40;99.90
26703;DHT22;14316;51.074;3.704;2022-10-31T07:33:05;14.30;99.90
26703;DHT22;14316;51.074;3.704;2022-10-31T07:35:31;14.30;99.90
26703;DHT22;14316;51.074;3.704;2022-10-31T07:37:58;14.40;99.90
26703;DHT22;14316;51.074;3.704;2022-10-31T07:40:31;14.50;99.90
26703;DHT22;14316;51.074;3.704;2022-10-31T07:42:57;14.60;99.90
26703;DHT22;14316;51.074;3.704;2022-10-31T07:45:23;14.70;99.90
26703;DHT22;14316;51.074;3.704;2022-10-31T07:47:51;14.70;99.90
26703;DHT22;14316;51.074;3.704;2022-10-31T07:50:20;14.80;99.90
26703;DHT22;14316;51.074;3.704;2022-10-31T07:52:46;14.90;99.90
26703;DHT22;14316;51.074;3.704;2022-10-31T07:55:13;14.90;99.90
26703;DHT22;14316;51.074;3.704;2022-10-31T07:57:39;15.00;99.90
26703;DHT22;14316;51.074;3.704;2022-10-31T08:00:10;15.00;99.90
26703;DHT22;14316;51.074;3.704;2022-10-31T08:02:36;15.00;99.90
26703;DHT22;14316;51.074;3.704;2022-10-31T08:05:02;14.90;99.90
26703;DHT22;14316;51.074;3.704;2022-10-31T08:07:28;14.90;99.90
26703;DHT22;14316;51.074;3.704;2022-10-31T08:09:56;15.00;99.90
26703;DHT22;14316;51.074;3.704;2022-10-31T08:12:22;15.10;99.90
26703;DHT22;14316;51.074;3.704;2022-10-31T08:14:47;15.20;99.90
26703;DHT22;14316;51.074;3.704;2022-10-31T08:17:13;15.20;99.90
26703;DHT22;14316;51.074;3.704;2022-10-31T08:19:39;15.30;99.90
26703;DHT22;14316;51.074;3.704;2022-10-31T08:22:04;15.40;99.90
26703;DHT22;14316;51.074;3.704;2022-10-31T08:24:30;15.40;99.90
26703;DHT22;14316;51.074;3.704;2022-10-31T08:26:55;15.40;99.90
26703;DHT22;14316;51.074;3.704;2022-10-31T08:29:21;15.50;99.90
26703;DHT22;14316;51.074;3.704;2022-10-31T08:31:47;15.50;99.90
26703;DHT22;14316;51.074;3.704;2022-10-31T08:34:12;15.30;99.90
26703;DHT22;14316;51.074;3.704;2022-10-31T08:36:39;15.40;99.90
26703;DHT22;14316;51.074;3.704;2022-10-31T08:39:05;15.40;99.90
26703;DHT22;14316;51.074;3.704;2022-10-31T08:41:31;15.60;99.90
26703;DHT22;14316;51.074;3.704;2022-10-31T08:43:56;15.70;99.90
26703;DHT22;14316;51.074;3.704;2022-10-31T08:46:22;15.90;99.90
26703;DHT22;14316;51.074;3.704;2022-10-31T08:48:48;16.00;99.90
26703;DHT22;14316;51.074;3.704;2022-10-31T08:51:14;16.20;99.90
26703;DHT22;14316;51.074;3.704;2022-10-31T08:53:40;16.40;99.90
26703;DHT22;14316;51.074;3.704;2022-10-31T08:56:06;16.50;99.90
26703;DHT22;14316;51.074;3.704;2022-10-31T08:58:31;16.60;99.90
26703;DHT22;14316;51.074;3.704;2022-10-31T09:00:59;16.80;99.90
26703;DHT22;14316;51.074;3.704;2022-10-31T09:03:27;17.00;99.90
26703;DHT22;14316;51.074;3.704;2022-10-31T09:06:00;17.10;99.90
26703;DHT22;14316;51.074;3.704;2022-10-31T09:08:29;17.30;99.90
26703;DHT22;14316;51.074;3.704;2022-10-31T09:10:56;17.40;99.90
26703;DHT22;14316;51.074;3.704;2022-10-31T09:13:22;17.50;99.90
26703;DHT22;14316;51.074;3.704;2022-10-31T09:15:49;17.50;99.90
26703;DHT22;14316;51.074;3.704;2022-10-31T09:18:17;17.50;99.90
26703;DHT22;14316;51.074;3.704;2022-10-31T09:20:44;17.40;99.90
26703;DHT22;14316;51.074;3.704;2022-10-31T09:23:19;17.40;99.90
26703;DHT22;14316;51.074;3.704;2022-10-31T09:25:46;17.30;99.90
26703;DHT22;14316;51.074;3.704;2022-10-31T09:28:14;17.30;99.90
26703;DHT22;14316;51.074;3.704;2022-10-31T09:30:40;17.30;99.90
26703;DHT22;14316;51.074;3.704;2022-10-31T09:33:09;17.20;99.90
26703;DHT22;14316;51.074;3.704;2022-10-31T09:35:35;17.20;99.90
26703;DHT22;14316;51.074;3.704;2022-10-31T09:38:08;17.20;99.90
26703;DHT22;14316;51.074;3.704;2022-10-31T09:41:16;17.40;99.90
26703;DHT22;14316;51.074;3.704;2022-10-31T09:43:47;17.50;99.90
26703;DHT22;14316;51.074;3.704;2022-10-31T09:46:28;17.50;99.90
26703;DHT22;14316;51.074;3.704;2022-10-31T09:51:55;17.70;99.90
26703;DHT22;14316;51.074;3.704;2022-10-31T09:55:03;17.70;99.90
26703;DHT22;14316;51.074;3.704;2022-10-31T09:57:36;17.80;99.90
26703;DHT22;14316;51.074;3.704;2022-10-31T10:00:07;17.70;99.90
26703;DHT22;14316;51.074;3.704;2022-10-31T10:05:40;17.70;99.90
26703;DHT22;14316;51.074;3.704;2022-10-31T10:08:18;17.70;99.90
26703;DHT22;14316;51.074;3.704;2022-10-31T10:10:49;17.80;99.90
26703;DHT22;14316;51.074;3.704;2022-10-31T10:16:25;18.20;99.90
26703;DHT22;14316;51.074;3.704;2022-10-31T10:22:12;18.40;99.90
26703;DHT22;14316;51.074;3.704;2022-10-31T10:24:55;18.60;99.90
26703;DHT22;14316;51.074;3.704;2022-10-31T10:30:36;18.90;99.90
26703;DHT22;14316;51.074;3.704;2022-10-31T10:33:12;19.00;99.90
26703;DHT22;14316;51.074;3.704;2022-10-31T10:35:52;19.30;99.90
26703;DHT22;14316;51.074;3.704;2022-10-31T10:40:55;20.10;99.90
26703;DHT22;14316;51.074;3.704;2022-10-31T10:43:33;20.30;99.90
26703;DHT22;14316;51.074;3.704;2022-10-31T10:49:00;20.70;99.90
26703;DHT22;14316;51.074;3.704;2022-10-31T10:51:39;21.20;99.90
26703;DHT22;14316;51.074;3.704;2022-10-31T10:57:29;21.80;99.90
26703;DHT22;14316;51.074;3.704;2022-10-31T11:00:12;22.00;99.90
26703;DHT22;14316;51.074;3.704;2022-10-31T11:02:38;22.00;99.90
26703;DHT22;14316;51.074;3.704;2022-10-31T11:05:24;21.90;99.90
26703;DHT22;14316;51.074;3.704;2022-10-31T11:07:50;21.80;99.90
26703;DHT22;14316;51.074;3.704;2022-10-31T11:10:16;21.50;99.90
26703;DHT22;14316;51.074;3.704;2022-10-31T11:12:45;21.50;99.90
26703;DHT22;14316;51.074;3.704;2022-10-31T11:15:25;21.60;99.90
26703;DHT22;14316;51.074;3.704;2022-10-31T11:17:54;21.20;99.90
26703;DHT22;14316;51.074;3.704;2022-10-31T11:22:47;20.70;99.90
26703;DHT22;14316;51.074;3.704;2022-10-31T11:27:46;20.90;99.90
26703;DHT22;14316;51.074;3.704;2022-10-31T11:30:14;20.90;99.90
26703;DHT22;14316;51.074;3.704;2022-10-31T11:32:46;20.90;99.90
26703;DHT22;14316;51.074;3.704;2022-10-31T11:35:16;20.90;99.90
26703;DHT22;14316;51.074;3.704;2022-10-31T11:37:45;20.90;99.90
26703;DHT22;14316;51.074;3.704;2022-10-31T11:40:16;20.90;99.90
26703;DHT22;14316;51.074;3.704;2022-10-31T11:42:43;20.90;99.90
26703;DHT22;14316;51.074;3.704;2022-10-31T11:45:32;21.00;99.90
26703;DHT22;14316;51.074;3.704;2022-10-31T11:48:00;21.00;99.90
26703;DHT22;14316;51.074;3.704;2022-10-31T11:50:37;21.20;99.90
26703;DHT22;14316;51.074;3.704;2022-10-31T11:53:14;21.40;99.90
26703;DHT22;14316;51.074;3.704;2022-10-31T11:55:41;21.60;99.90
26703;DHT22;14316;51.074;3.704;2022-10-31T11:58:24;21.70;99.90
26703;DHT22;14316;51.074;3.704;2022-10-31T12:00:55;21.70;99.90
26703;DHT22;14316;51.074;3.704;2022-10-31T12:03:43;21.60;99.90
26703;DHT22;14316;51.074;3.704;2022-10-31T12:06:23;21.40;99.90
26703;DHT22;14316;51.074;3.704;2022-10-31T12:08:51;21.10;99.90
26703;DHT22;14316;51.074;3.704;2022-10-31T12:19:38;21.30;99.90
26703;DHT22;14316;51.074;3.704;2022-10-31T12:39:02;21.10;99.90
26703;DHT22;14316;51.074;3.704;2022-10-31T12:41:34;20.90;99.90
26703;DHT22;14316;51.074;3.704;2022-10-31T12:57:39;20.50;99.90
26703;DHT22;14316;51.074;3.704;2022-10-31T13:00:12;20.50;99.90
26703;DHT22;14316;51.074;3.704;2022-10-31T13:05:32;20.40;99.90
26703;DHT22;14316;51.074;3.704;2022-10-31T13:13:35;20.20;99.90
26703;DHT22;14316;51.074;3.704;2022-10-31T13:16:24;20.40;99.90
26703;DHT22;14316;51.074;3.704;2022-10-31T13:19:03;20.30;99.90
26703;DHT22;14316;51.074;3.704;2022-10-31T13:21:41;20.40;99.90
26703;DHT22;14316;51.074;3.704;2022-10-31T13:24:16;20.70;99.90
26703;DHT22;14316;51.074;3.704;2022-10-31T13:26:47;21.00;99.90
26703;DHT22;14316;51.074;3.704;2022-10-31T13:29:19;21.50;99.90
26703;DHT22;14316;51.074;3.704;2022-10-31T13:31:45;22.10;99.90
26703;DHT22;14316;51.074;3.704;2022-10-31T13:34:28;22.80;99.90
26703;DHT22;14316;51.074;3.704;2022-10-31T13:45:17;25.90;99.90
26703;DHT22;14316;51.074;3.704;2022-10-31T13:47:43;27.20;99.90
26703;DHT22;14316;51.074;3.704;2022-10-31T13:50:25;27.60;99.90
26703;DHT22;14316;51.074;3.704;2022-10-31T13:52:51;28.00;99.90
26703;DHT22;14316;51.074;3.704;2022-10-31T13:56:10;28.20;99.90
26703;DHT22;14316;51.074;3.704;2022-10-31T13:58:56;28.30;99.90
26703;DHT22;14316;51.074;3.704;2022-10-31T14:01:23;29.00;99.90
26703;DHT22;14316;51.074;3.704;2022-10-31T14:04:07;29.70;99.90
26703;DHT22;14316;51.074;3.704;2022-10-31T14:07:05;30.40;99.90
26703;DHT22;14316;51.074;3.704;2022-10-31T14:09:36;30.90;99.90
26703;DHT22;14316;51.074;3.704;2022-10-31T14:12:11;30.90;99.90
26703;DHT22;14316;51.074;3.704;2022-10-31T14:14:44;30.40;99.90
26703;DHT22;14316;51.074;3.704;2022-10-31T14:17:23;29.60;99.90
26703;DHT22;14316;51.074;3.704;2022-10-31T14:22:37;27.70;99.90
26703;DHT22;14316;51.074;3.704;2022-10-31T14:27:51;26.20;99.90
26703;DHT22;14316;51.074;3.704;2022-10-31T14:30:23;25.80;99.90
26703;DHT22;14316;51.074;3.704;2022-10-31T14:32:58;25.40;99.90
26703;DHT22;14316;51.074;3.704;2022-10-31T14:36:17;25.00;99.90
26703;DHT22;14316;51.074;3.704;2022-10-31T14:49:28;23.30;99.90
26703;DHT22;14316;51.074;3.704;2022-10-31T14:51:59;23.00;99.90
26703;DHT22;14316;51.074;3.704;2022-10-31T14:54:35;22.80;99.90
26703;DHT22;14316;51.074;3.704;2022-10-31T14:57:30;22.60;99.90
26703;DHT22;14316;51.074;3.704;2022-10-31T15:00:21;22.70;99.90
26703;DHT22;14316;51.074;3.704;2022-10-31T15:05:34;22.40;99.90
26703;DHT22;14316;51.074;3.704;2022-10-31T15:08:00;22.30;99.90
26703;DHT22;14316;51.074;3.704;2022-10-31T15:10:32;22.30;99.90
26703;DHT22;14316;51.074;3.704;2022-10-31T15:13:20;22.20;99.90
26703;DHT22;14316;51.074;3.704;2022-10-31T15:15:48;22.00;99.90
26703;DHT22;14316;51.074;3.704;2022-10-31T15:18:18;21.80;99.90
26703;DHT22;14316;51.074;3.704;2022-10-31T15:20:46;21.60;99.90
26703;DHT22;14316;51.074;3.704;2022-10-31T15:23:27;21.40;99.90
26703;DHT22;14316;51.074;3.704;2022-10-31T15:26:03;21.30;99.90
26703;DHT22;14316;51.074;3.704;2022-10-31T15:28:30;21.00;99.90
26703;DHT22;14316;51.074;3.704;2022-10-31T15:30:58;20.80;99.90
26703;DHT22;14316;51.074;3.704;2022-10-31T15:33:27;20.70;99.90
26703;DHT22;14316;51.074;3.704;2022-10-31T15:35:58;20.60;99.90
26703;DHT22;14316;51.074;3.704;2022-10-31T15:38:25;20.70;99.90
26703;DHT22;14316;51.074;3.704;2022-10-31T15:40:54;20.60;99.90
26703;DHT22;14316;51.074;3.704;2022-10-31T15:43:21;20.50;99.90
26703;DHT22;14316;51.074;3.704;2022-10-31T15:45:49;20.40;99.90
26703;DHT22;14316;51.074;3.704;2022-10-31T15:48:23;20.30;99.90
26703;DHT22;14316;51.074;3.704;2022-10-31T15:50:53;20.20;99.90
26703;DHT22;14316;51.074;3.704;2022-10-31T15:55:59;20.00;99.90
26703;DHT22;14316;51.074;3.704;2022-10-31T15:58:26;19.90;99.90
26703;DHT22;14316;51.074;3.704;2022-10-31T16:01:05;19.80;99.90
26703;DHT22;14316;51.074;3.704;2022-10-31T16:03:32;19.70;99.90
26703;DHT22;14316;51.074;3.704;2022-10-31T16:06:00;19.60;99.90
26703;DHT22;14316;51.074;3.704;2022-10-31T16:08:33;19.50;99.90
26703;DHT22;14316;51.074;3.704;2022-10-31T16:14:13;19.10;99.90
26703;DHT22;14316;51.074;3.704;2022-10-31T16:16:55;18.90;99.90
26703;DHT22;14316;51.074;3.704;2022-10-31T16:19:32;18.70;99.90
26703;DHT22;14316;51.074;3.704;2022-10-31T16:22:05;18.60;99.90
26703;DHT22;14316;51.074;3.704;2022-10-31T16:24:35;18.30;99.90
26703;DHT22;14316;51.074;3.704;2022-10-31T16:27:06;18.10;99.90
26703;DHT22;14316;51.074;3.704;2022-10-31T16:29:52;18.10;99.90
26703;DHT22;14316;51.074;3.704;2022-10-31T16:35:46;17.70;99.90
26703;DHT22;14316;51.074;3.704;2022-10-31T16:37:46;17.50;99.90
26703;DHT22;14316;51.074;3.704;2022-10-31T16:40:13;17.40;99.90
26703;DHT22;14316;51.074;3.704;2022-10-31T16:42:40;17.40;99.90
26703;DHT22;14316;51.074;3.704;2022-10-31T16:45:07;17.40;99.90
26703;DHT22;14316;51.074;3.704;2022-10-31T16:47:38;17.30;99.90
26703;DHT22;14316;51.074;3.704;2022-10-31T16:50:10;17.30;99.90
26703;DHT22;14316;51.074;3.704;2022-10-31T16:52:37;17.30;99.90
26703;DHT22;14316;51.074;3.704;2022-10-31T16:55:03;17.30;99.90
26703;DHT22;14316;51.074;3.704;2022-10-31T16:57:30;17.20;99.90
26703;DHT22;14316;51.074;3.704;2022-10-31T16:59:57;17.20;99.90
26703;DHT22;14316;51.074;3.704;2022-10-31T17:02:22;17.00;99.90
26703;DHT22;14316;51.074;3.704;2022-10-31T17:04:48;16.90;99.90
26703;DHT22;14316;51.074;3.704;2022-10-31T17:07:14;16.80;99.90
26703;DHT22;14316;51.074;3.704;2022-10-31T17:09:40;16.80;99.90
26703;DHT22;14316;51.074;3.704;2022-10-31T17:12:09;16.70;99.90
26703;DHT22;14316;51.074;3.704;2022-10-31T17:14:39;16.70;99.90
26703;DHT22;14316;51.074;3.704;2022-10-31T17:17:04;16.80;99.90
26703;DHT22;14316;51.074;3.704;2022-10-31T17:19:30;16.70;99.90
26703;DHT22;14316;51.074;3.704;2022-10-31T17:21:56;16.60;99.90
26703;DHT22;14316;51.074;3.704;2022-10-31T17:24:21;16.50;99.90
26703;DHT22;14316;51.074;3.704;2022-10-31T17:26:47;16.40;99.90
26703;DHT22;14316;51.074;3.704;2022-10-31T17:29:13;16.70;99.90
26703;DHT22;14316;51.074;3.704;2022-10-31T17:31:39;16.40;99.90
26703;DHT22;14316;51.074;3.704;2022-10-31T17:34:06;16.50;99.90
26703;DHT22;14316;51.074;3.704;2022-10-31T17:36:33;16.60;99.90
26703;DHT22;14316;51.074;3.704;2022-10-31T17:38:59;16.50;99.90
26703;DHT22;14316;51.074;3.704;2022-10-31T17:41:25;16.40;99.90
26703;DHT22;14316;51.074;3.704;2022-10-31T17:43:55;16.50;99.90
26703;DHT22;14316;51.074;3.704;2022-10-31T17:46:21;16.50;99.90
26703;DHT22;14316;51.074;3.704;2022-10-31T17:48:50;16.50;99.90
26703;DHT22;14316;51.074;3.704;2022-10-31T17:51:15;16.60;99.90
26703;DHT22;14316;51.074;3.704;2022-10-31T17:53:41;16.50;99.90
26703;DHT22;14316;51.074;3.704;2022-10-31T17:56:08;16.50;99.90
26703;DHT22;14316;51.074;3.704;2022-10-31T17:58:35;16.40;99.90
26703;DHT22;14316;51.074;3.704;2022-10-31T18:01:07;16.40;99.90
26703;DHT22;14316;51.074;3.704;2022-10-31T18:03:33;16.50;99.90
26703;DHT22;14316;51.074;3.704;2022-10-31T18:05:59;16.60;99.90
26703;DHT22;14316;51.074;3.704;2022-10-31T18:08:26;16.60;99.90
26703;DHT22;14316;51.074;3.704;2022-10-31T18:10:54;16.60;99.90